createdAt,value
2022-08-22T00:00:58.098Z,19.23
2022-08-22T00:02:47.030Z,19.85
2022-08-22T00:02:48.856Z,20.50
2022-08-22T00:02:58.682Z,19.68
2022-08-22T00:04:20.363Z,19.21
2022-08-22T00:07:37.524Z,19.13
2022-08-22T00:10:55.333Z,19.14
2022-08-22T00:14:03.367Z,19.12
2022-08-22T00:17:27.903Z,19.11
2022-08-22T00:20:41.431Z,19.04
2022-08-22T00:23:52.626Z,19.05
2022-08-22T00:27:04.423Z,19.01
2022-08-22T00:30:13.851Z,19.02
2022-08-22T00:33:29.067Z,19.00
2022-08-22T00:36:41.185Z,18.96
2022-08-22T00:39:52.257Z,18.92
2022-08-22T00:43:21.355Z,18.95
2022-08-22T00:46:56.966Z,18.89
2022-08-22T00:50:27.341Z,18.92
2022-08-22T00:53:46.983Z,18.83
2022-08-22T00:57:19.450Z,18.86
2022-08-22T01:00:28.055Z,18.85
2022-08-22T01:03:59.990Z,18.80
2022-08-22T01:07:19.842Z,18.78
2022-08-22T01:10:40.694Z,18.85
2022-08-22T01:14:04.231Z,18.83
2022-08-22T01:17:51.019Z,18.83
2022-08-22T01:21:40.038Z,18.83
2022-08-22T01:25:41.260Z,18.85
2022-08-22T01:29:35.522Z,18.86
2022-08-22T01:33:33.219Z,18.84
2022-08-22T01:37:18.127Z,18.83
2022-08-22T01:41:18.069Z,18.84
2022-08-22T01:44:39.338Z,18.84
2022-08-22T01:47:49.811Z,18.83
2022-08-22T01:51:11.323Z,18.78
2022-08-22T01:54:40.655Z,18.73
2022-08-22T01:57:54.429Z,18.69
2022-08-22T02:01:19.180Z,18.76
2022-08-22T02:04:37.282Z,18.64
2022-08-22T02:07:50.212Z,18.68
2022-08-22T02:11:04.412Z,18.69
2022-08-22T02:14:24.071Z,18.64
2022-08-22T02:17:33.753Z,18.64
2022-08-22T02:21:00.239Z,18.65
2022-08-22T02:24:18.156Z,18.63
2022-08-22T02:27:37.084Z,18.57
2022-08-22T02:31:03.623Z,18.51
2022-08-22T02:34:39.935Z,18.41
2022-08-22T02:37:56.596Z,18.41
2022-08-22T02:41:11.645Z,18.39
2022-08-22T02:44:24.131Z,18.37
2022-08-22T02:47:34.735Z,18.32
2022-08-22T02:50:45.718Z,18.29
2022-08-22T02:53:59.251Z,18.30
2022-08-22T02:57:13.064Z,18.29
2022-08-22T03:00:32.588Z,18.23
2022-08-22T03:03:42.070Z,18.17
2022-08-22T03:07:05.670Z,18.17
2022-08-22T03:10:21.955Z,18.12
2022-08-22T03:13:37.791Z,18.10
2022-08-22T03:16:53.898Z,18.09
2022-08-22T03:20:08.026Z,18.08
2022-08-22T03:23:21.817Z,18.04
2022-08-22T03:26:30.752Z,18.06
2022-08-22T03:29:38.693Z,18.07
2022-08-22T03:32:56.415Z,18.03
2022-08-22T03:36:11.265Z,18.01
2022-08-22T03:39:20.642Z,17.97
2022-08-22T03:43:22.134Z,17.93
2022-08-22T03:47:08.690Z,17.91
2022-08-22T03:50:48.577Z,17.93
2022-08-22T03:54:56.210Z,17.92
2022-08-22T03:58:31.271Z,17.92
2022-08-22T04:02:01.912Z,17.92
2022-08-22T04:05:49.578Z,17.89
2022-08-22T04:09:41.708Z,17.92
2022-08-22T04:13:12.739Z,17.86
2022-08-22T04:16:51.714Z,17.84
2022-08-22T04:20:22.139Z,17.84
2022-08-22T04:23:59.077Z,17.83
2022-08-22T04:27:11.807Z,17.81
2022-08-22T04:30:26.263Z,17.84
2022-08-22T04:33:36.287Z,17.80
2022-08-22T04:36:46.013Z,17.79
2022-08-22T04:39:56.820Z,17.80
2022-08-22T04:43:09.162Z,17.80
2022-08-22T04:46:21.291Z,17.77
2022-08-22T04:49:33.075Z,17.78
2022-08-22T04:52:56.951Z,17.81
2022-08-22T04:56:12.493Z,17.72
2022-08-22T04:59:20.005Z,17.73
2022-08-22T05:02:27.921Z,17.76
2022-08-22T05:05:39.352Z,17.84
2022-08-22T05:08:45.790Z,17.88
2022-08-22T05:11:58.157Z,17.92
2022-08-22T05:15:10.060Z,17.86
2022-08-22T05:18:21.226Z,17.86
2022-08-22T05:21:31.189Z,17.90
2022-08-22T05:24:40.630Z,17.98
2022-08-22T05:27:56.299Z,17.96
2022-08-22T05:31:06.027Z,17.99
2022-08-22T05:34:16.690Z,17.94
2022-08-22T05:37:25.427Z,18.03
2022-08-22T05:40:32.523Z,18.07
2022-08-22T05:43:42.961Z,18.09
2022-08-22T05:46:56.116Z,17.91
2022-08-22T05:50:05.202Z,18.07
2022-08-22T05:53:17.090Z,18.08
2022-08-22T05:56:30.191Z,18.05
2022-08-22T05:59:41.627Z,18.10
2022-08-22T06:02:56.175Z,18.20
2022-08-22T06:06:06.721Z,18.13
2022-08-22T06:09:19.559Z,18.22
2022-08-22T06:12:33.502Z,18.26
2022-08-22T06:15:47.274Z,18.30
2022-08-22T06:18:54.465Z,18.44
2022-08-22T06:22:00.370Z,18.41
2022-08-22T06:25:12.817Z,18.52
2022-08-22T06:28:23.041Z,18.57
2022-08-22T06:31:33.793Z,18.64
2022-08-22T06:34:43.656Z,18.82
2022-08-22T06:37:49.349Z,18.91
2022-08-22T06:40:55.093Z,19.26
2022-08-22T06:44:01.008Z,19.30
2022-08-22T06:47:15.597Z,20.05
2022-08-22T06:50:25.633Z,20.86
2022-08-22T06:53:37.244Z,21.53
2022-08-22T06:56:50.477Z,20.49
2022-08-22T06:59:57.496Z,20.27
2022-08-22T07:03:09.570Z,20.19
2022-08-22T07:06:16.985Z,19.76
2022-08-22T07:09:26.770Z,20.17
2022-08-22T07:12:37.814Z,20.28
2022-08-22T07:15:44.278Z,20.27
2022-08-22T07:18:52.315Z,20.30
2022-08-22T07:21:58.100Z,20.32
2022-08-22T07:25:09.546Z,20.30
2022-08-22T07:28:36.750Z,20.38
2022-08-22T07:31:49.427Z,20.15
2022-08-22T07:35:09.286Z,20.05
2022-08-22T07:38:23.327Z,20.11
2022-08-22T07:41:36.703Z,20.10
2022-08-22T07:45:07.520Z,20.15
2022-08-22T07:48:26.267Z,19.93
2022-08-22T07:51:37.563Z,20.03
2022-08-22T07:54:48.109Z,19.98
2022-08-22T07:57:57.448Z,20.07
2022-08-22T08:01:03.474Z,20.02
2022-08-22T08:04:13.596Z,19.96
2022-08-22T08:07:23.549Z,19.98
2022-08-22T08:10:32.670Z,20.08
2022-08-22T08:13:41.619Z,20.16
2022-08-22T08:16:55.651Z,20.17
2022-08-22T08:20:06.113Z,20.17
2022-08-22T08:23:22.202Z,20.12
2022-08-22T08:26:34.452Z,20.15
2022-08-22T08:29:40.588Z,20.07
2022-08-22T08:32:52.259Z,20.08
2022-08-22T08:36:07.188Z,20.12
2022-08-22T08:39:27.233Z,20.07
2022-08-22T08:43:14.083Z,20.01
2022-08-22T08:46:50.199Z,20.01
2022-08-22T08:50:31.683Z,20.03
2022-08-22T08:54:10.448Z,20.10
2022-08-22T08:57:22.416Z,20.18
2022-08-22T09:00:48.926Z,20.15
2022-08-22T09:04:19.621Z,20.16
2022-08-22T09:07:52.113Z,20.12
2022-08-22T09:11:52.724Z,20.14
2022-08-22T09:15:27.566Z,20.14
2022-08-22T09:19:07.869Z,20.12
2022-08-22T09:23:02.566Z,20.16
2022-08-22T09:26:17.114Z,20.22
2022-08-22T09:29:51.659Z,20.21
2022-08-22T09:33:06.685Z,20.12
2022-08-22T09:36:22.478Z,20.19
2022-08-22T09:39:34.507Z,20.11
2022-08-22T09:42:47.979Z,20.20
2022-08-22T09:46:07.181Z,20.21
2022-08-22T09:49:21.750Z,20.27
2022-08-22T09:52:54.773Z,20.31
2022-08-22T09:56:15.121Z,20.34
2022-08-22T09:59:27.283Z,20.43
2022-08-22T10:02:43.494Z,20.49
2022-08-22T10:05:58.349Z,20.64
2022-08-22T10:09:09.067Z,20.65
2022-08-22T10:12:24.097Z,20.64
2022-08-22T10:15:37.578Z,20.67
2022-08-22T10:18:52.829Z,20.76
2022-08-22T10:22:30.232Z,20.73
2022-08-22T10:25:41.622Z,20.61
2022-08-22T10:28:57.701Z,20.63
2022-08-22T10:32:15.958Z,20.68
2022-08-22T10:35:28.061Z,20.69
2022-08-22T10:38:46.845Z,20.73
2022-08-22T10:42:17.004Z,20.88
2022-08-22T10:45:36.831Z,20.90
2022-08-22T10:48:49.530Z,20.93
2022-08-22T10:52:09.696Z,20.99
2022-08-22T10:55:26.411Z,21.02
2022-08-22T10:58:38.974Z,21.06
2022-08-22T11:01:54.424Z,21.11
2022-08-22T11:05:36.309Z,21.13
2022-08-22T11:09:08.746Z,21.16
2022-08-22T11:12:23.444Z,21.25
2022-08-22T11:16:09.101Z,21.27
2022-08-22T11:19:24.701Z,21.30
2022-08-22T11:22:39.011Z,21.39
2022-08-22T11:26:00.730Z,21.46
2022-08-22T11:29:33.075Z,21.47
2022-08-22T11:32:47.575Z,21.43
2022-08-22T11:36:04.454Z,21.55
2022-08-22T11:39:21.950Z,21.58
2022-08-22T11:42:34.553Z,21.66
2022-08-22T11:45:48.519Z,21.64
2022-08-22T11:49:31.750Z,21.55
2022-08-22T11:53:18.101Z,21.71
2022-08-22T11:56:27.758Z,21.84
2022-08-22T11:59:56.981Z,21.85
2022-08-22T12:03:25.585Z,21.89
2022-08-22T12:06:56.391Z,21.93
2022-08-22T12:10:04.925Z,21.98
2022-08-22T12:13:19.059Z,21.97
2022-08-22T12:16:47.460Z,22.10
2022-08-22T12:20:16.612Z,22.09
2022-08-22T12:23:57.013Z,22.20
2022-08-22T12:27:28.909Z,22.21
2022-08-22T12:30:40.334Z,22.23
2022-08-22T12:34:07.409Z,22.26
2022-08-22T12:37:20.358Z,22.40
2022-08-22T12:40:43.599Z,22.41
2022-08-22T12:43:56.721Z,22.44
2022-08-22T12:47:21.658Z,22.53
2022-08-22T12:50:40.669Z,22.50
2022-08-22T12:54:22.106Z,22.56
2022-08-22T12:57:39.105Z,22.60
2022-08-22T13:00:47.380Z,22.39
2022-08-22T13:03:56.979Z,22.51
2022-08-22T13:07:11.578Z,22.68
2022-08-22T13:10:40.339Z,22.64
2022-08-22T13:13:56.888Z,22.56
2022-08-22T13:17:15.185Z,22.67
2022-08-22T13:20:34.441Z,22.56
2022-08-22T13:23:44.629Z,22.61
2022-08-22T13:26:56.627Z,22.68
2022-08-22T13:30:06.526Z,22.56
2022-08-22T13:33:17.556Z,22.59
2022-08-22T13:36:24.521Z,22.58
2022-08-22T13:39:36.352Z,22.58
2022-08-22T13:42:54.244Z,22.66
2022-08-22T13:46:03.638Z,22.68
2022-08-22T13:49:13.854Z,22.87
2022-08-22T13:52:30.139Z,22.81
2022-08-22T13:55:44.494Z,22.74
2022-08-22T13:58:59.922Z,22.88
2022-08-22T14:02:15.195Z,22.80
2022-08-22T14:05:31.100Z,22.86
2022-08-22T14:08:37.927Z,22.81
2022-08-22T14:11:55.150Z,22.90
2022-08-22T14:15:04.217Z,22.95
2022-08-22T14:18:14.013Z,22.93
2022-08-22T14:21:40.182Z,22.76
2022-08-22T14:24:55.711Z,22.88
2022-08-22T14:28:09.060Z,22.90
2022-08-22T14:31:16.318Z,22.78
2022-08-22T14:34:22.915Z,22.85
2022-08-22T14:37:39.020Z,22.92
2022-08-22T14:40:46.838Z,22.72
2022-08-22T14:43:58.172Z,22.81
2022-08-22T14:47:32.554Z,22.75
2022-08-22T14:50:46.184Z,22.68
2022-08-22T14:53:53.663Z,22.69
2022-08-22T14:57:03.442Z,22.70
2022-08-22T15:00:26.048Z,22.70
2022-08-22T15:03:38.462Z,22.71
2022-08-22T15:06:53.918Z,22.78
2022-08-22T15:10:06.200Z,22.76
2022-08-22T15:13:13.048Z,22.71
2022-08-22T15:16:24.106Z,22.72
2022-08-22T15:19:41.199Z,22.72
2022-08-22T15:22:47.296Z,22.76
2022-08-22T15:26:00.828Z,22.77
2022-08-22T15:29:18.670Z,22.84
2022-08-22T15:32:29.150Z,22.83
2022-08-22T15:35:38.877Z,22.83
2022-08-22T15:38:48.139Z,22.90
2022-08-22T15:41:53.645Z,22.92
2022-08-22T15:44:59.707Z,22.92
2022-08-22T15:48:10.454Z,22.88
2022-08-22T15:51:40.446Z,22.74
2022-08-22T15:55:28.718Z,22.75
2022-08-22T15:58:37.245Z,22.77
2022-08-22T16:01:49.801Z,22.68
2022-08-22T16:05:19.645Z,22.71
2022-08-22T16:08:32.817Z,22.66
2022-08-22T16:11:40.638Z,22.62
2022-08-22T16:14:50.992Z,22.66
2022-08-22T16:17:56.201Z,22.65
2022-08-22T16:21:03.288Z,22.70
2022-08-22T16:24:50.537Z,22.67
2022-08-22T16:27:58.333Z,22.58
2022-08-22T16:31:21.739Z,22.53
2022-08-22T16:34:39.906Z,22.53
2022-08-22T16:37:49.942Z,22.49
2022-08-22T16:40:56.738Z,22.42
2022-08-22T16:44:24.245Z,22.40
2022-08-22T16:47:42.962Z,22.39
2022-08-22T16:51:14.797Z,22.37
2022-08-22T16:54:44.902Z,22.35
2022-08-22T16:58:06.502Z,22.28
2022-08-22T17:01:20.795Z,22.26
2022-08-22T17:04:31.718Z,22.26
2022-08-22T17:07:54.573Z,22.20
2022-08-22T17:11:15.161Z,22.08
2022-08-22T17:14:35.283Z,21.86
2022-08-22T17:17:55.413Z,21.79
2022-08-22T17:21:10.457Z,21.85
2022-08-22T17:24:33.468Z,21.89
2022-08-22T17:27:41.840Z,21.86
2022-08-22T17:31:10.438Z,21.65
2022-08-22T17:34:29.293Z,21.68
2022-08-22T17:37:42.762Z,21.50
2022-08-22T17:40:59.157Z,21.50
2022-08-22T17:44:14.046Z,21.42
2022-08-22T17:47:25.470Z,21.42
2022-08-22T17:50:40.158Z,21.41
2022-08-22T17:53:51.029Z,21.37
2022-08-22T17:57:05.787Z,21.35
2022-08-22T18:00:25.658Z,21.25
2022-08-22T18:03:35.873Z,21.03
2022-08-22T18:06:55.425Z,21.09
2022-08-22T18:10:14.214Z,20.86
2022-08-22T18:13:33.779Z,20.85
2022-08-22T18:16:47.651Z,20.85
2022-08-22T18:20:01.080Z,20.73
2022-08-22T18:23:28.393Z,20.63
2022-08-22T18:26:52.653Z,20.56
2022-08-22T18:30:05.847Z,20.56
2022-08-22T18:33:19.574Z,20.50
2022-08-22T18:36:32.128Z,20.42
2022-08-22T18:39:46.710Z,20.44
2022-08-22T18:42:58.140Z,20.40
2022-08-22T18:46:31.935Z,20.34
2022-08-22T18:49:54.454Z,20.30
2022-08-22T18:53:01.960Z,20.30
2022-08-22T18:56:11.824Z,20.26
2022-08-22T18:59:56.465Z,20.16
2022-08-22T19:03:36.039Z,20.04
2022-08-22T19:07:24.591Z,19.95
2022-08-22T19:10:40.029Z,20.01
2022-08-22T19:14:13.550Z,19.94
2022-08-22T19:17:43.825Z,19.92
2022-08-22T19:21:42.473Z,19.86
2022-08-22T19:25:15.528Z,19.79
2022-08-22T19:28:27.154Z,19.70
2022-08-22T19:31:50.332Z,19.73
2022-08-22T19:35:19.691Z,19.68
2022-08-22T19:38:58.650Z,19.63
2022-08-22T19:42:04.214Z,19.57
2022-08-22T19:45:23.486Z,19.52
2022-08-22T19:48:31.650Z,19.54
2022-08-22T19:51:36.911Z,19.50
2022-08-22T19:54:51.812Z,19.48
2022-08-22T19:58:13.406Z,19.49
2022-08-22T20:01:45.712Z,19.49
2022-08-22T20:05:28.007Z,19.48
2022-08-22T20:08:47.103Z,19.43
2022-08-22T20:12:03.468Z,19.36
2022-08-22T20:15:20.734Z,19.35
2022-08-22T20:19:21.326Z,19.31
2022-08-22T20:22:30.195Z,19.34
2022-08-22T20:25:44.411Z,19.34
2022-08-22T20:28:52.427Z,19.26
2022-08-22T20:31:59.076Z,19.27
2022-08-22T20:35:06.957Z,19.25
2022-08-22T20:38:18.076Z,19.21
2022-08-22T20:41:26.709Z,19.19
2022-08-22T20:44:35.249Z,19.21
2022-08-22T20:48:57.200Z,19.15
2022-08-22T20:52:07.406Z,19.12
2022-08-22T20:55:16.373Z,19.12
2022-08-22T20:58:25.069Z,19.08
2022-08-22T21:01:32.635Z,19.00
2022-08-22T21:04:53.074Z,18.93
2022-08-22T21:08:09.339Z,18.95
2022-08-22T21:11:40.725Z,18.96
2022-08-22T21:14:47.054Z,18.95
2022-08-22T21:17:52.619Z,18.93
2022-08-22T21:21:17.310Z,18.86
2022-08-22T21:24:24.373Z,18.79
2022-08-22T21:27:32.502Z,18.83
2022-08-22T21:30:37.888Z,18.82
2022-08-22T21:33:45.499Z,18.84
2022-08-22T21:36:53.972Z,18.83
2022-08-22T21:40:08.426Z,18.81
2022-08-22T21:43:36.867Z,18.77
2022-08-22T21:46:42.039Z,18.78
2022-08-22T21:50:28.330Z,18.70
2022-08-22T21:53:33.632Z,18.72
2022-08-22T21:56:40.319Z,18.68
2022-08-22T21:59:51.869Z,18.69
2022-08-22T22:03:07.370Z,18.69
2022-08-22T22:06:13.171Z,18.70
2022-08-22T22:09:19.173Z,18.69
2022-08-22T22:12:26.129Z,18.68
2022-08-22T22:15:36.818Z,18.65
2022-08-22T22:18:42.768Z,18.68
2022-08-22T22:21:48.270Z,18.64
2022-08-22T22:24:53.502Z,18.58
2022-08-22T22:28:00.827Z,18.60
2022-08-22T22:31:08.352Z,18.52
2022-08-22T22:34:16.407Z,18.53
2022-08-22T22:37:21.624Z,18.49
2022-08-22T22:40:27.049Z,18.44
2022-08-22T22:43:34.895Z,18.40
2022-08-22T22:46:40.179Z,18.36
2022-08-22T22:49:46.194Z,18.32
2022-08-22T22:52:51.690Z,18.35
2022-08-22T22:56:00.643Z,18.35
2022-08-22T22:59:12.952Z,18.36
2022-08-22T23:02:21.348Z,18.32
2022-08-22T23:05:26.786Z,18.31
2022-08-22T23:08:32.346Z,18.30
2022-08-22T23:11:38.089Z,18.24
2022-08-22T23:14:44.880Z,18.22
2022-08-22T23:17:50.347Z,18.24
2022-08-22T23:20:56.226Z,18.22
2022-08-22T23:24:01.829Z,18.24
2022-08-22T23:27:10.114Z,18.19
2022-08-22T23:30:17.330Z,18.23
2022-08-22T23:33:22.734Z,18.15
2022-08-22T23:36:29.607Z,18.17
2022-08-22T23:39:36.425Z,18.09
2022-08-22T23:42:41.802Z,18.13
2022-08-22T23:45:48.602Z,18.15
2022-08-22T23:48:54.412Z,18.11
2022-08-22T23:52:00.512Z,18.13
2022-08-22T23:55:07.125Z,18.11
2022-08-22T23:58:15.971Z,18.11
